»·PEaware :: VIR11 EGLL-KBOS

VIR11 :: EGLL-KBOS

FLIGHT INFORMATION

Flight Status: Arrived
Operator:
Virgin Atlantic Airways
More flights by this operator :: More flights under this callsign
Pilot: Cullen C. (7783)
Aircraft: AIRBUS A330-200
(A332)
More flights by this aircraft type
Origin: EGLL Heathrow
United Kingdom
Destination: KBOS Logan Intl
United States
More flights between these airports :: More routes between these airports
Route: CPT3F CPT UL9 SLANY DOGAL 5520N 5530N 5340N 5150N ALLRY N356E ALLEX Q822 AJJAY OOSHN4
File this flight plan on PilotEdge
Remarks:
Altitude:
(Current/Filed)
38,000ft
Speed:
(Current/Filed)
480kts
Departed: 20-Sep-17 10:23 AM
Arrived: 20-Sep-17 05:40 PM
Distance/Time
Traveled:
2827nm/7:17
Distance/Time
To Go:
Arrived

Flight Plot

Page will automatically refresh every two minutes.

Flight plan parsing failed; only flown route is shown


Map Options




Map Legend


Flown Route
Filed Route
Departure Airport
Arrival Airport
Navaid (VOR, NDB)
Fix

Horizontal Profiles

Position Reports

Time Latitude Longitude Heading Altitude Ground
Speed
20-Sep-17 10:11 51.468420 -0.457020 360 88ft 0kts
20-Sep-17 10:12 51.468420 -0.457020 360 88ft 0kts
20-Sep-17 10:13 51.468420 -0.457020 360 88ft 0kts
20-Sep-17 10:14 51.468420 -0.457020 360 88ft 0kts
20-Sep-17 10:15 51.468420 -0.457020 360 88ft 0kts
20-Sep-17 10:16 51.468419 -0.457020 360 88ft 0kts
20-Sep-17 10:17 51.468409 -0.457020 359 88ft 3kts
20-Sep-17 10:18 51.467805 -0.457017 8 88ft 2kts
20-Sep-17 10:19 51.467484 -0.457694 92 88ft 2kts
20-Sep-17 10:20 51.467488 -0.457993 89 88ft 0kts
20-Sep-17 10:21 51.467488 -0.457993 89 88ft 0kts
20-Sep-17 10:22 51.466733 -0.455397 127 88ft 10kts
20-Sep-17 10:23 51.466622 -0.450580 89 88ft 13kts
20-Sep-17 10:24 51.466656 -0.443107 89 88ft 19kts
20-Sep-17 10:25 51.466312 -0.436094 163 88ft 7kts
20-Sep-17 10:26 51.464939 -0.437482 270 88ft 6kts
20-Sep-17 10:27 51.464905 -0.476897 270 294ft 168kts
20-Sep-17 10:28 51.467304 -0.548203 269 2305ft 171kts
20-Sep-17 10:29 51.460490 -0.637318 255 3370ft 244kts
20-Sep-17 10:30 51.455805 -0.747715 265 5826ft 261kts
20-Sep-17 10:31 51.453187 -0.864466 267 6393ft 278kts
20-Sep-17 10:32 51.465335 -0.986110 277 9422ft 278kts
20-Sep-17 10:33 51.480028 -1.117249 278 10827ft 335kts
20-Sep-17 10:34 51.497254 -1.265048 280 13587ft 345kts
20-Sep-17 10:35 51.516029 -1.418125 280 16016ft 359kts
20-Sep-17 10:36 51.541011 -1.574538 285 18358ft 371kts
20-Sep-17 10:37 51.567143 -1.731842 280 20474ft 381kts
20-Sep-17 10:38 51.591171 -1.899912 281 22444ft 393kts
20-Sep-17 10:39 51.615724 -2.072247 281 24263ft 404kts
20-Sep-17 10:40 51.640856 -2.251029 280 25883ft 415kts
20-Sep-17 10:41 51.666211 -2.433732 280 27402ft 425kts
20-Sep-17 10:42 51.691925 -2.621269 280 28777ft 434kts
20-Sep-17 10:43 51.717257 -2.808472 279 30172ft 439kts
20-Sep-17 10:44 51.742776 -2.999499 279 31807ft 434kts
20-Sep-17 10:45 51.767704 -3.188571 279 33191ft 430kts
20-Sep-17 10:46 51.791858 -3.376471 279 34401ft 427kts
20-Sep-17 10:47 51.815377 -3.563235 279 35470ft 424kts
20-Sep-17 10:48 51.838357 -3.748366 278 36395ft 422kts
20-Sep-17 10:49 51.861132 -3.934295 278 37138ft 421kts
20-Sep-17 10:50 51.883594 -4.119135 277 37867ft 419kts
20-Sep-17 10:51 51.905380 -4.303160 276 38003ft 421kts
20-Sep-17 10:52 51.927136 -4.487821 277 37991ft 417kts
20-Sep-17 10:53 51.949888 -4.671323 276 38003ft 417kts
20-Sep-17 10:54 51.972036 -4.852785 276 37999ft 414kts
20-Sep-17 10:55 51.994478 -5.035065 280 37991ft 415kts
20-Sep-17 10:56 52.030787 -5.213974 283 37998ft 418kts
20-Sep-17 10:57 52.067408 -5.392262 282 37998ft 419kts
20-Sep-17 10:58 52.103863 -5.570976 282 37993ft 418kts
20-Sep-17 10:59 52.140171 -5.749703 280 37995ft 425kts
20-Sep-17 11:00 52.180813 -5.929799 283 37997ft 427kts
20-Sep-17 11:01 52.224914 -6.109211 284 37860ft 428kts
20-Sep-17 11:02 52.269024 -6.288968 284 37863ft 429kts
20-Sep-17 11:03 52.312806 -6.468748 284 37860ft 428kts
20-Sep-17 11:04 52.356483 -6.649587 284 37858ft 428kts
20-Sep-17 11:05 52.399184 -6.827971 283 37861ft 427kts
20-Sep-17 11:06 52.442248 -7.009264 283 37861ft 427kts
20-Sep-17 11:07 52.484876 -7.190245 283 37859ft 427kts
20-Sep-17 11:08 52.527326 -7.371998 283 37861ft 428kts
20-Sep-17 11:09 52.569574 -7.554420 282 37860ft 427kts
20-Sep-17 11:10 52.611047 -7.735226 281 37952ft 438kts
20-Sep-17 11:11 52.653465 -7.921437 281 37937ft 433kts
20-Sep-17 11:12 52.695652 -8.108440 281 37941ft 434kts
20-Sep-17 11:13 52.737184 -8.294128 281 37938ft 430kts
20-Sep-17 11:14 52.778390 -8.480169 281 37942ft 435kts
20-Sep-17 11:15 52.818134 -8.661085 280 37942ft 432kts
20-Sep-17 11:16 52.858539 -8.846677 280 37944ft 429kts
20-Sep-17 11:17 52.898683 -9.032721 280 37943ft 428kts
20-Sep-17 11:18 52.938316 -9.218129 280 37944ft 429kts
20-Sep-17 11:19 52.977795 -9.404479 280 37942ft 430kts
20-Sep-17 11:20 53.016858 -9.590529 280 37942ft 430kts
20-Sep-17 11:21 53.055785 -9.777724 279 37944ft 429kts
20-Sep-17 11:22 53.094593 -9.966144 279 37944ft 432kts
20-Sep-17 11:23 53.133058 -10.153916 279 37941ft 433kts
20-Sep-17 11:24 53.171448 -10.343714 279 37941ft 432kts
20-Sep-17 11:25 53.209248 -10.532549 279 37905ft 435kts
20-Sep-17 11:26 53.247158 -10.723827 279 37915ft 435kts
20-Sep-17 11:27 53.284737 -10.915330 279 37915ft 437kts
20-Sep-17 11:28 53.322196 -11.108008 279 37913ft 436kts
20-Sep-17 11:29 53.359451 -11.301616 279 37913ft 437kts
20-Sep-17 11:30 53.396404 -11.495689 279 37914ft 439kts
20-Sep-17 11:31 53.432962 -11.689665 278 37915ft 440kts
20-Sep-17 11:32 53.469373 -11.884859 278 37913ft 439kts
20-Sep-17 11:33 53.505572 -12.080919 278 37914ft 440kts
20-Sep-17 11:34 53.541590 -12.278161 278 37915ft 442kts
20-Sep-17 11:35 53.577221 -12.475355 278 37916ft 443kts
20-Sep-17 11:36 53.612419 -12.672222 277 37916ft 442kts
20-Sep-17 11:37 53.647513 -12.870805 278 37914ft 444kts
20-Sep-17 11:38 53.682263 -13.069542 278 37915ft 445kts
20-Sep-17 11:39 53.716825 -13.269368 278 37915ft 444kts
20-Sep-17 11:40 53.751128 -13.469998 278 37916ft 445kts
20-Sep-17 11:41 53.785177 -13.671494 277 37917ft 447kts
20-Sep-17 11:42 53.818862 -13.873180 277 37915ft 447kts
20-Sep-17 11:43 53.852238 -14.075250 277 37915ft 446kts
20-Sep-17 11:44 53.885400 -14.278492 277 37916ft 448kts
20-Sep-17 11:45 53.918133 -14.481515 277 37916ft 449kts
20-Sep-17 11:46 53.950716 -14.686026 276 37916ft 448kts
20-Sep-17 11:47 53.982864 -14.890425 277 37915ft 450kts
20-Sep-17 11:48 54.021171 -15.093314 283 37916ft 457kts
20-Sep-17 11:49 54.066217 -15.295352 283 37914ft 457kts
20-Sep-17 11:50 54.111234 -15.498170 283 37912ft 458kts
20-Sep-17 11:51 54.155829 -15.700902 282 37912ft 459kts
20-Sep-17 11:52 54.200051 -15.904375 282 37914ft 458kts
20-Sep-17 11:53 54.244055 -16.108817 283 37914ft 460kts
20-Sep-17 11:54 54.287718 -16.313715 283 37915ft 460kts
20-Sep-17 11:55 54.331134 -16.519490 283 37913ft 460kts
20-Sep-17 11:56 54.374076 -16.725208 282 37914ft 461kts
20-Sep-17 11:57 54.416884 -16.932412 282 37913ft 461kts
20-Sep-17 11:58 54.459261 -17.139558 282 37914ft 460kts
20-Sep-17 11:59 54.501321 -17.347389 282 37915ft 462kts
20-Sep-17 12:00 54.543129 -17.556146 282 37914ft 462kts
20-Sep-17 12:01 54.584694 -17.765989 281 37915ft 462kts
20-Sep-17 12:02 54.625726 -17.975362 281 37915ft 462kts
20-Sep-17 12:03 54.666566 -18.185977 282 37914ft 463kts
20-Sep-17 12:04 54.706910 -18.396403 282 37915ft 464kts
20-Sep-17 12:05 54.747080 -18.608180 282 37916ft 463kts
20-Sep-17 12:06 54.786180 -18.816748 281 37915ft 464kts
20-Sep-17 12:07 54.825520 -19.028876 281 37915ft 464kts
20-Sep-17 12:08 54.864573 -19.241864 281 37915ft 465kts
20-Sep-17 12:09 54.903288 -19.455471 281 37916ft 465kts
20-Sep-17 12:10 54.941792 -19.670394 280 37917ft 465kts
20-Sep-17 12:11 54.979705 -19.884628 280 37915ft 465kts
20-Sep-17 12:12 55.003500 -20.101633 268 37922ft 455kts
20-Sep-17 12:13 55.012672 -20.320440 267 37913ft 454kts
20-Sep-17 12:14 55.019573 -20.503160 267 37918ft 455kts
20-Sep-17 12:15 55.028771 -20.759191 266 37917ft 453kts
20-Sep-17 12:16 55.036190 -20.978167 266 37917ft 455kts
20-Sep-17 12:17 55.042111 -21.161587 266 37917ft 454kts
20-Sep-17 12:18 55.049914 -21.417990 266 37917ft 455kts
20-Sep-17 12:19 55.055154 -21.601201 266 37915ft 456kts
20-Sep-17 12:20 55.062047 -21.857849 266 37916ft 455kts
20-Sep-17 12:21 55.066645 -22.041602 266 37916ft 455kts
20-Sep-17 12:22 55.071565 -22.260536 269 37917ft 443kts
20-Sep-17 12:23 55.076403 -22.476377 269 37914ft 449kts
20-Sep-17 12:24 55.080695 -22.692922 268 37915ft 447kts
20-Sep-17 12:25 55.084601 -22.909440 268 37916ft 446kts
20-Sep-17 12:26 55.088104 -23.125064 268 37916ft 446kts
20-Sep-17 12:27 55.091244 -23.342551 268 37914ft 450kts
20-Sep-17 12:28 55.094003 -23.559882 268 37916ft 449kts
20-Sep-17 12:29 55.096384 -23.777580 268 37915ft 448kts
20-Sep-17 12:30 55.098369 -23.995394 268 37915ft 448kts
20-Sep-17 12:31 55.099963 -24.212440 268 37647ft 448kts
20-Sep-17 12:32 55.101311 -24.430047 267 37368ft 449kts
20-Sep-17 12:33 55.102136 -24.647200 267 37375ft 449kts
20-Sep-17 12:34 55.102572 -24.864147 267 37375ft 448kts
20-Sep-17 12:35 55.102621 -25.081554 267 37373ft 448kts
20-Sep-17 12:36 55.102281 -25.299131 267 37373ft 448kts
20-Sep-17 12:37 55.101555 -25.516534 267 37374ft 448kts
20-Sep-17 12:38 55.100446 -25.733571 266 37373ft 447kts
20-Sep-17 12:39 55.098953 -25.949927 266 37373ft 448kts
20-Sep-17 12:40 55.097072 -26.166976 266 37374ft 447kts
20-Sep-17 12:41 55.094802 -26.384256 266 37374ft 447kts
20-Sep-17 12:42 55.092155 -26.600622 266 37373ft 447kts
20-Sep-17 12:43 55.089132 -26.816797 265 37373ft 447kts
20-Sep-17 12:44 55.085714 -27.033418 265 37373ft 447kts
20-Sep-17 12:45 55.081912 -27.249958 265 37374ft 446kts
20-Sep-17 12:46 55.077740 -27.465732 265 37374ft 446kts
20-Sep-17 12:47 55.073178 -27.681935 264 37374ft 446kts
20-Sep-17 12:48 55.068250 -27.897538 264 37374ft 446kts
20-Sep-17 12:49 55.062942 -28.112837 264 37373ft 446kts
20-Sep-17 12:50 55.057242 -28.328604 264 37373ft 445kts
20-Sep-17 12:51 55.051161 -28.544274 264 37373ft 445kts
20-Sep-17 12:52 55.044865 -28.754646 263 37373ft 445kts
20-Sep-17 12:53 55.038049 -28.969626 263 37374ft 445kts
20-Sep-17 12:54 55.030838 -29.185051 263 37374ft 444kts
20-Sep-17 12:55 55.023285 -29.399305 263 37373ft 445kts
20-Sep-17 12:56 55.015323 -29.614337 263 37374ft 444kts
20-Sep-17 12:57 55.007017 -29.828558 262 37374ft 443kts
20-Sep-17 12:58 54.992886 -30.040103 253 37374ft 440kts
20-Sep-17 12:59 54.962721 -30.246195 252 37376ft 439kts
20-Sep-17 13:00 54.931281 -30.451063 252 37373ft 439kts
20-Sep-17 13:01 54.899496 -30.655306 251 37373ft 439kts
20-Sep-17 13:02 54.867259 -30.859183 251 37443ft 437kts
20-Sep-17 13:03 54.834755 -31.062941 251 37690ft 439kts
20-Sep-17 13:04 54.801986 -31.265940 251 37958ft 438kts
20-Sep-17 13:05 54.768849 -31.469090 251 38069ft 440kts
20-Sep-17 13:06 54.734281 -31.677000 254 38080ft 462kts
20-Sep-17 13:07 54.698648 -31.890825 255 38076ft 458kts
20-Sep-17 13:08 54.662758 -32.102754 256 38078ft 461kts
20-Sep-17 13:09 54.626642 -32.313622 256 38071ft 465kts
20-Sep-17 13:10 54.589871 -32.525568 256 38078ft 461kts
20-Sep-17 13:11 54.552851 -32.736557 255 38078ft 460kts
20-Sep-17 13:12 54.515365 -32.947660 255 38076ft 461kts
20-Sep-17 13:13 54.477670 -33.157482 255 38076ft 461kts
20-Sep-17 13:14 54.439426 -33.367921 255 38077ft 460kts
20-Sep-17 13:15 54.401021 -33.576885 255 38077ft 460kts
20-Sep-17 13:16 54.362242 -33.785624 254 38077ft 460kts
20-Sep-17 13:17 54.323222 -33.993460 254 38077ft 458kts
20-Sep-17 13:18 54.283622 -34.201617 254 38079ft 458kts
20-Sep-17 13:19 54.243757 -34.409145 254 38076ft 460kts
20-Sep-17 13:20 54.203612 -34.615867 254 38076ft 460kts
20-Sep-17 13:21 54.162970 -34.823005 253 38077ft 460kts
20-Sep-17 13:22 54.122165 -35.028683 253 38077ft 460kts
20-Sep-17 13:23 54.082221 -35.228020 253 38076ft 423kts
20-Sep-17 13:24 54.043784 -35.417850 253 38077ft 431kts
20-Sep-17 13:25 54.004820 -35.608449 253 38076ft 429kts
20-Sep-17 13:26 53.965397 -35.799555 252 38077ft 428kts
20-Sep-17 13:27 53.925752 -35.989837 252 38079ft 428kts
20-Sep-17 13:28 53.885696 -36.179831 252 38077ft 428kts
20-Sep-17 13:29 53.845313 -36.369740 252 38075ft 428kts
20-Sep-17 13:30 53.804765 -36.558923 252 38077ft 429kts
20-Sep-17 13:31 53.763897 -36.747975 252 38077ft 429kts
20-Sep-17 13:32 53.722752 -36.936474 252 38076ft 429kts
20-Sep-17 13:33 53.681319 -37.124545 252 38076ft 429kts
20-Sep-17 13:34 53.639571 -37.312328 252 38077ft 429kts
20-Sep-17 13:35 53.597617 -37.499390 252 38076ft 428kts
20-Sep-17 13:36 53.555213 -37.686774 251 38077ft 429kts
20-Sep-17 13:37 53.512558 -37.873689 251 38077ft 429kts
20-Sep-17 13:38 53.469619 -38.060093 251 38077ft 429kts
20-Sep-17 13:39 53.426315 -38.246442 251 38076ft 429kts
20-Sep-17 13:40 53.382703 -38.432284 251 38076ft 429kts
20-Sep-17 13:41 53.338887 -38.617799 251 38076ft 429kts
20-Sep-17 13:42 53.295423 -38.800169 250 38077ft 429kts
20-Sep-17 13:43 53.251058 -38.984653 250 38076ft 429kts
20-Sep-17 13:44 53.206309 -39.169148 250 38077ft 429kts
20-Sep-17 13:45 53.161546 -39.352155 250 38076ft 429kts
20-Sep-17 13:46 53.116222 -39.535922 250 38077ft 429kts
20-Sep-17 13:47 53.071002 -39.717056 252 38077ft 408kts
20-Sep-17 13:48 53.028868 -39.886010 252 38080ft 400kts
20-Sep-17 13:49 52.991286 -40.056992 261 38082ft 390kts
20-Sep-17 13:50 52.964886 -40.232850 260 38078ft 392kts
20-Sep-17 13:51 52.938055 -40.408067 260 38075ft 393kts
20-Sep-17 13:52 52.910930 -40.583270 260 38076ft 392kts
20-Sep-17 13:53 52.883521 -40.757610 259 38077ft 393kts
20-Sep-17 13:54 52.855856 -40.932396 259 38076ft 392kts
20-Sep-17 13:55 52.828111 -41.105943 259 38076ft 392kts
20-Sep-17 13:56 52.799998 -41.280024 259 38075ft 392kts
20-Sep-17 13:57 52.771794 -41.452878 259 38076ft 391kts
20-Sep-17 13:58 52.743319 -41.625636 259 38075ft 391kts
20-Sep-17 13:59 52.714490 -41.798894 258 38077ft 391kts
20-Sep-17 14:00 52.685514 -41.971196 258 37941ft 389kts
20-Sep-17 14:01 52.656286 -42.143283 258 37939ft 391kts
20-Sep-17 14:02 52.626802 -42.315199 258 37941ft 390kts
20-Sep-17 14:03 52.597182 -42.486211 258 37941ft 390kts
20-Sep-17 14:04 52.567243 -42.657391 258 37940ft 390kts
20-Sep-17 14:05 52.537514 -42.826520 255 37942ft 370kts
20-Sep-17 14:06 52.508224 -42.990345 255 37942ft 378kts
20-Sep-17 14:07 52.478764 -43.154150 255 37940ft 377kts
20-Sep-17 14:08 52.448966 -43.318364 255 37940ft 375kts
20-Sep-17 14:09 52.419020 -43.481951 255 37946ft 374kts
20-Sep-17 14:10 52.389463 -43.642020 255 37941ft 377kts
20-Sep-17 14:11 52.358955 -43.805852 255 37947ft 373kts
20-Sep-17 14:12 52.328392 -43.968497 255 37940ft 374kts
20-Sep-17 14:13 52.297658 -44.130633 255 37940ft 375kts
20-Sep-17 14:14 52.266619 -44.292967 255 37941ft 374kts
20-Sep-17 14:15 52.235439 -44.454710 254 37940ft 374kts
20-Sep-17 14:16 52.204048 -44.616057 254 37939ft 374kts
20-Sep-17 14:17 52.172529 -44.776837 254 37951ft 371kts
20-Sep-17 14:18 52.141188 -44.935445 254 37934ft 377kts
20-Sep-17 14:19 52.109152 -45.096082 254 37943ft 373kts
20-Sep-17 14:20 52.076947 -45.256273 254 37942ft 372kts
20-Sep-17 14:21 52.044670 -45.415539 254 37939ft 372kts
20-Sep-17 14:22 52.012134 -45.574789 254 37940ft 372kts
20-Sep-17 14:23 51.979525 -45.733214 253 37998ft 373kts
20-Sep-17 14:24 51.946567 -45.892009 253 37993ft 372kts
20-Sep-17 14:25 51.913919 -46.048101 253 38002ft 374kts
20-Sep-17 14:26 51.880345 -46.206576 253 37999ft 370kts
20-Sep-17 14:27 51.846932 -46.363602 253 37993ft 370kts
20-Sep-17 14:28 51.813273 -46.520746 253 37994ft 371kts
20-Sep-17 14:29 51.779349 -46.677903 253 38000ft 371kts
20-Sep-17 14:30 51.745312 -46.834558 253 37995ft 370kts
20-Sep-17 14:31 51.710950 -46.991355 253 37994ft 370kts
20-Sep-17 14:32 51.677027 -47.145049 253 37992ft 368kts
20-Sep-17 14:33 51.648107 -47.275051 253 37999ft 368kts
20-Sep-17 14:34 51.607509 -47.456318 253 37996ft 369kts
20-Sep-17 14:35 51.572701 -47.610489 253 37994ft 369kts
20-Sep-17 14:36 51.537490 -47.765421 252 37994ft 369kts
20-Sep-17 14:37 51.502215 -47.919413 252 37996ft 369kts
20-Sep-17 14:38 51.472563 -48.047976 252 37995ft 368kts
20-Sep-17 14:39 51.437462 -48.199266 252 37997ft 363kts
20-Sep-17 14:40 51.401419 -48.353304 252 37999ft 366kts
20-Sep-17 14:41 51.365683 -48.505077 252 37992ft 368kts
20-Sep-17 14:42 51.324170 -48.680028 251 37999ft 368kts
20-Sep-17 14:43 51.293878 -48.806934 251 37996ft 367kts
20-Sep-17 14:44 51.257349 -48.958858 251 37996ft 367kts
20-Sep-17 14:45 51.220598 -49.110630 251 37995ft 366kts
20-Sep-17 14:46 51.184208 -49.259946 252 38007ft 358kts
20-Sep-17 14:47 51.147093 -49.411057 251 37995ft 365kts
20-Sep-17 14:48 51.110040 -49.560988 251 37990ft 367kts
20-Sep-17 14:49 51.072722 -49.711012 251 37995ft 366kts
20-Sep-17 14:50 51.035133 -49.861120 251 37997ft 365kts
20-Sep-17 14:51 50.997736 -50.010147 252 37995ft 364kts
20-Sep-17 14:52 50.961768 -50.160003 252 37994ft 364kts
20-Sep-17 14:53 50.926137 -50.307623 252 37998ft 362kts
20-Sep-17 14:54 50.890300 -50.454720 252 37989ft 362kts
20-Sep-17 14:55 50.853710 -50.603783 252 37995ft 363kts
20-Sep-17 14:56 50.817151 -50.752289 251 37996ft 364kts
20-Sep-17 14:57 50.780404 -50.900489 251 37996ft 363kts
20-Sep-17 14:58 50.743492 -51.048333 251 37995ft 362kts
20-Sep-17 14:59 50.706421 -51.195793 252 38003ft 360kts
20-Sep-17 15:00 50.669652 -51.341236 251 37987ft 366kts
20-Sep-17 15:01 50.632627 -51.486433 251 37987ft 335kts
20-Sep-17 15:02 50.599497 -51.615922 251 37654ft 326kts
20-Sep-17 15:03 50.564332 -51.752594 251 37825ft 354kts
20-Sep-17 15:04 50.526158 -51.899758 251 38003ft 363kts
20-Sep-17 15:05 50.486742 -52.043970 248 37992ft 365kts
20-Sep-17 15:06 50.444333 -52.184966 248 37985ft 359kts
20-Sep-17 15:07 50.401086 -52.327547 248 37995ft 359kts
20-Sep-17 15:08 50.357997 -52.468871 248 37996ft 361kts
20-Sep-17 15:09 50.314658 -52.610174 248 37993ft 361kts
20-Sep-17 15:10 50.271298 -52.750839 248 37994ft 361kts
20-Sep-17 15:11 50.227753 -52.891220 248 37997ft 361kts
20-Sep-17 15:12 50.184136 -53.030890 248 37978ft 352kts
20-Sep-17 15:13 50.140161 -53.171138 248 37997ft 361kts
20-Sep-17 15:14 50.096242 -53.310314 248 37997ft 361kts
20-Sep-17 15:15 50.051986 -53.449764 248 37993ft 359kts
20-Sep-17 15:16 50.007570 -53.588923 248 37993ft 359kts
20-Sep-17 15:17 49.963416 -53.726606 247 37998ft 360kts
20-Sep-17 15:18 49.918717 -53.865160 247 37996ft 359kts
20-Sep-17 15:19 49.874069 -54.002303 247 37995ft 359kts
20-Sep-17 15:20 49.829360 -54.139225 247 38004ft 355kts
20-Sep-17 15:21 49.784164 -54.276931 247 37997ft 357kts
20-Sep-17 15:22 49.738965 -54.413973 247 37992ft 359kts
20-Sep-17 15:23 49.693709 -54.550432 247 37993ft 359kts
20-Sep-17 15:24 49.648338 -54.686510 247 37998ft 359kts
20-Sep-17 15:25 49.602651 -54.822916 247 37997ft 358kts
20-Sep-17 15:26 49.557097 -54.958115 247 38002ft 355kts
20-Sep-17 15:27 49.510936 -55.094285 247 37997ft 356kts
20-Sep-17 15:28 49.464766 -55.229837 247 37993ft 359kts
20-Sep-17 15:29 49.418448 -55.365086 247 37994ft 359kts
20-Sep-17 15:30 49.371954 -55.500128 247 37994ft 358kts
20-Sep-17 15:31 49.325326 -55.634848 247 37993ft 358kts
20-Sep-17 15:32 49.278750 -55.768841 246 37997ft 359kts
20-Sep-17 15:33 49.231793 -55.903133 246 37995ft 359kts
20-Sep-17 15:34 49.184821 -56.036746 246 37962ft 360kts
20-Sep-17 15:35 49.137470 -56.170733 246 37968ft 359kts
20-Sep-17 15:36 49.090020 -56.304309 246 37969ft 359kts
20-Sep-17 15:37 49.042218 -56.438185 246 37967ft 359kts
20-Sep-17 15:38 48.994417 -56.571371 246 37966ft 360kts
20-Sep-17 15:39 48.946843 -56.703321 245 37967ft 361kts
20-Sep-17 15:40 48.898893 -56.835640 245 37968ft 360kts
20-Sep-17 15:41 48.850529 -56.967876 245 37969ft 360kts
20-Sep-17 15:42 48.802002 -57.100328 245 37968ft 361kts
20-Sep-17 15:43 48.753259 -57.232732 245 37968ft 361kts
20-Sep-17 15:44 48.704288 -57.365090 245 37967ft 361kts
20-Sep-17 15:45 48.655107 -57.497340 245 37967ft 361kts
20-Sep-17 15:46 48.605746 -57.629419 245 37966ft 361kts
20-Sep-17 15:47 48.556685 -57.760167 245 37969ft 362kts
20-Sep-17 15:48 48.507066 -57.891656 245 38028ft 363kts
20-Sep-17 15:49 48.457119 -58.023313 245 38023ft 362kts
20-Sep-17 15:50 48.406973 -58.154842 245 38021ft 363kts
20-Sep-17 15:51 48.356703 -58.286051 245 38021ft 363kts
20-Sep-17 15:52 48.306025 -58.417672 245 38021ft 363kts
20-Sep-17 15:53 48.255416 -58.548468 245 38021ft 363kts
20-Sep-17 15:54 48.205544 -58.676739 244 38026ft 364kts
20-Sep-17 15:55 48.154546 -58.807394 244 38023ft 364kts
20-Sep-17 15:56 48.103219 -58.938131 244 38022ft 364kts
20-Sep-17 15:57 48.051858 -59.068309 244 38021ft 365kts
20-Sep-17 15:58 48.000294 -59.198369 244 38022ft 365kts
20-Sep-17 15:59 47.948392 -59.328649 244 38022ft 365kts
20-Sep-17 16:00 47.896605 -59.458011 244 38021ft 365kts
20-Sep-17 16:01 47.844269 -59.587668 244 38020ft 366kts
20-Sep-17 16:02 47.792355 -59.716192 243 38000ft 366kts
20-Sep-17 16:03 47.739772 -59.845715 243 37998ft 366kts
20-Sep-17 16:04 47.686697 -59.975851 242 37997ft 374kts
20-Sep-17 16:05 47.633124 -60.106445 242 37994ft 372kts
20-Sep-17 16:06 47.579289 -60.237090 242 37995ft 372kts
20-Sep-17 16:07 47.525293 -60.367513 242 37994ft 372kts
20-Sep-17 16:08 47.471054 -60.497906 242 37994ft 373kts
20-Sep-17 16:09 47.416654 -60.628044 242 37993ft 373kts
20-Sep-17 16:10 47.362203 -60.757819 241 37996ft 374kts
20-Sep-17 16:11 47.307325 -60.887946 241 37988ft 375kts
20-Sep-17 16:12 47.252187 -61.017904 241 38019ft 372kts
20-Sep-17 16:13 47.196917 -61.147648 241 38047ft 374kts
20-Sep-17 16:14 47.141861 -61.276302 241 38041ft 377kts
20-Sep-17 16:15 47.086075 -61.406009 241 38045ft 376kts
20-Sep-17 16:16 47.030043 -61.535687 241 38050ft 376kts
20-Sep-17 16:17 46.974334 -61.664036 240 38050ft 377kts
20-Sep-17 16:18 46.917928 -61.793481 240 38048ft 378kts
20-Sep-17 16:19 46.861799 -61.921244 240 38002ft 378kts
20-Sep-17 16:20 46.804908 -62.050384 240 37992ft 376kts
20-Sep-17 16:21 46.747966 -62.179137 240 37991ft 379kts
20-Sep-17 16:22 46.690680 -62.308066 240 37996ft 380kts
20-Sep-17 16:23 46.633485 -62.436189 240 37995ft 380kts
20-Sep-17 16:24 46.575735 -62.564956 240 37994ft 381kts
20-Sep-17 16:25 46.518170 -62.692782 240 37995ft 382kts
20-Sep-17 16:26 46.459944 -62.821518 239 37997ft 381kts
20-Sep-17 16:27 46.401558 -62.949888 239 37988ft 386kts
20-Sep-17 16:28 46.343190 -63.077686 239 37997ft 384kts
20-Sep-17 16:29 46.284363 -63.205864 239 37997ft 383kts
20-Sep-17 16:30 46.225457 -63.333635 239 37994ft 383kts
20-Sep-17 16:31 46.166321 -63.461331 239 38062ft 385kts
20-Sep-17 16:32 46.106963 -63.588910 239 38077ft 384kts
20-Sep-17 16:33 46.047100 -63.717133 237 38000ft 390kts
20-Sep-17 16:34 45.986575 -63.846048 237 37991ft 392kts
20-Sep-17 16:35 45.925721 -63.975064 237 37994ft 391kts
20-Sep-17 16:36 45.865150 -64.102714 237 37996ft 391kts
20-Sep-17 16:37 45.804104 -64.230789 237 38046ft 389kts
20-Sep-17 16:38 45.742926 -64.358735 237 38042ft 390kts
20-Sep-17 16:39 45.681680 -64.486250 237 38049ft 390kts
20-Sep-17 16:40 45.620025 -64.614040 237 38050ft 390kts
20-Sep-17 16:41 45.559377 -64.739317 237 38049ft 391kts
20-Sep-17 16:42 45.497387 -64.866684 237 38049ft 391kts
20-Sep-17 16:43 45.435489 -64.993274 237 38050ft 391kts
20-Sep-17 16:44 45.373574 -65.119331 237 38031ft 390kts
20-Sep-17 16:45 45.311287 -65.245594 236 38019ft 391kts
20-Sep-17 16:46 45.248766 -65.371775 236 38020ft 391kts
20-Sep-17 16:47 45.186232 -65.497401 236 38022ft 391kts
20-Sep-17 16:48 45.123583 -65.622720 236 38021ft 391kts
20-Sep-17 16:49 45.061240 -65.746768 237 38021ft 390kts
20-Sep-17 16:50 45.008716 -65.851215 237 38024ft 391kts
20-Sep-17 16:51 44.935046 -65.996741 236 38023ft 391kts
20-Sep-17 16:52 44.871923 -66.120602 236 38023ft 392kts
20-Sep-17 16:53 44.819050 -66.224043 236 37997ft 392kts
20-Sep-17 16:54 44.755467 -66.348036 236 38001ft 392kts
20-Sep-17 16:55 44.681381 -66.491837 236 37996ft 392kts
20-Sep-17 16:56 44.627578 -66.595833 236 37993ft 392kts
20-Sep-17 16:57 44.564072 -66.718228 235 37997ft 393kts
20-Sep-17 16:58 44.499751 -66.841595 235 37995ft 393kts
20-Sep-17 16:59 44.435137 -66.964929 235 37995ft 393kts
20-Sep-17 17:00 44.390841 -67.102645 249 38000ft 393kts
20-Sep-17 17:01 44.354421 -67.246282 249 37998ft 394kts
20-Sep-17 17:02 44.317644 -67.390481 249 37993ft 394kts
20-Sep-17 17:03 44.280810 -67.533985 249 38023ft 395kts
20-Sep-17 17:04 44.243949 -67.676780 248 38021ft 396kts
20-Sep-17 17:05 44.206521 -67.820998 248 38022ft 396kts
20-Sep-17 17:06 44.168841 -67.965146 248 38023ft 397kts
20-Sep-17 17:07 44.130953 -68.109263 248 38013ft 398kts
20-Sep-17 17:08 44.091413 -68.258684 246 38030ft 426kts
20-Sep-17 17:09 44.050177 -68.413503 246 38022ft 425kts
20-Sep-17 17:10 44.008839 -68.567734 246 38019ft 427kts
20-Sep-17 17:11 43.971992 -68.704479 245 37987ft 427kts
20-Sep-17 17:12 43.930393 -68.857907 245 37992ft 427kts
20-Sep-17 17:13 43.888452 -69.011331 245 38001ft 427kts
20-Sep-17 17:14 43.846489 -69.163793 245 37992ft 428kts
20-Sep-17 17:15 43.804037 -69.317348 245 37995ft 425kts
20-Sep-17 17:16 43.762791 -69.470716 246 38015ft 427kts
20-Sep-17 17:17 43.701799 -69.602348 207 38026ft 414kts
20-Sep-17 17:18 43.603063 -69.657355 198 38007ft 411kts
20-Sep-17 17:19 43.498004 -69.705307 197 35076ft 457kts
20-Sep-17 17:20 43.376208 -69.760230 197 32194ft 472kts
20-Sep-17 17:21 43.250002 -69.816857 196 29241ft 484kts
20-Sep-17 17:22 43.122169 -69.873949 196 26304ft 493kts
20-Sep-17 17:23 42.998586 -69.928689 194 24508ft 444kts
20-Sep-17 17:24 42.887058 -69.903722 182 21918ft 413kts
20-Sep-17 17:25 42.802580 -69.993804 217 19434ft 391kts
20-Sep-17 17:26 42.708150 -70.058593 199 17345ft 379kts
20-Sep-17 17:27 42.632333 -70.149973 243 15318ft 381kts
20-Sep-17 17:28 42.589717 -70.279724 253 13621ft 370kts
20-Sep-17 17:29 42.556929 -70.407791 253 12517ft 354kts
20-Sep-17 17:30 42.525486 -70.532941 255 11508ft 350kts
20-Sep-17 17:31 42.496657 -70.657705 255 10522ft 343kts
20-Sep-17 17:32 42.470129 -70.772456 255 9914ft 321kts
20-Sep-17 17:33 42.426226 -70.866198 227 9086ft 283kts
20-Sep-17 17:34 42.358133 -70.911878 198 7750ft 281kts
20-Sep-17 17:35 42.283851 -70.946878 197 6156ft 293kts
20-Sep-17 17:36 42.213914 -70.977083 197 5771ft 242kts
20-Sep-17 17:37 42.152970 -71.003758 223 4996ft 226kts
20-Sep-17 17:38 42.167108 -71.055173 322 4377ft 155kts
20-Sep-17 17:39 42.199375 -71.083119 17 3293ft 140kts
20-Sep-17 17:40 42.236283 -71.066962 19 2522ft 144kts
20-Sep-17 17:41 42.273158 -71.049402 19 1731ft 141kts
20-Sep-17 17:42 42.310192 -71.031424 19 950ft 140kts
20-Sep-17 17:43 42.345383 -71.014514 19 217ft 130kts
20-Sep-17 17:44 42.366311 -71.004532 9 19ft 2kts
20-Sep-17 17:45 42.370419 -71.005131 341 19ft 15kts
20-Sep-17 17:46 42.371950 -71.009715 205 19ft 18kts
20-Sep-17 17:47 42.368464 -71.013266 282 19ft 10kts
20-Sep-17 17:48 42.370731 -71.016556 311 19ft 18kts
20-Sep-17 17:49 42.371395 -71.019049 212 19ft 4kts
20-Sep-17 17:50 42.371053 -71.019327 212 19ft 0kts
20-Sep-17 17:51 42.371053 -71.019327 212 19ft 0kts
20-Sep-17 17:52 42.371053 -71.019327 212 19ft 0kts

Navigation Log

Ident Type
Flight plan parsing failed, navigation log unavailable